Airfield :
LOGIN :

Register | Disclaimer

   EN    FR    IT 

 










Legend :    VFR   Marginal VFR   IFR   Intensive IFR   Very Intensive IFR
Visi :
Ceiling :
>= 8 km
>= 3000ft
5 to 8 km
1000 to 3000 ft
1500m to 5 km
500 to 1000 ft
800 to 1500m
200 to 500 ft
< 800m
< 200 ft
Symbols :   Thunderstorms  Fog  Heavy snow  Heavy precipitations  Wind > 20 kt
SIGMETs :     Misc.  Thunderstorms  Icing  Turbulence  Mountain Waves  Volcanic Ashes







- Airport Elevation : 245 ft
- IATA code : BIQ
- Download approach charts


LFBZ - Biarritz

CURRENT METAR :
  • 212330Z AUTO VRB02KT 9999 SCT029 SCT070 BKN110 06/02 Q1022 NOSIG

EXPIRED METARs :
  • 212300Z AUTO VRB03KT 9999 FEW027 SCT100 BKN120 06/02 Q1022 NOSIG
  • 212230Z AUTO 35005KT 320V020 9999 FEW030 SCT100 06/02 Q1022 BECMG 18010KT
  • 212200Z AUTO 34005KT 300V030 9999 FEW028 BKN120 BKN220 07/02 Q1022 BECMG 18010KT
  • 212130Z AUTO 33007KT 9999 FEW028 SCT094 BKN120 07/02 Q1023 BECMG 18010KT
  • 212100Z AUTO 33009KT 300V360 9999 BKN030 BKN100 BKN120 07/02 Q1023 BECMG 18010KT
  • 212030Z AUTO 33008KT 310V010 9999 BKN030 BKN038 BKN100 08/03 Q1023 BECMG 18010KT

TAF TAF LFBZ
Valid from the 22 at 00:00 until the 23 at 00:00 UTC


212300Z 2200/2224 18010KT 9999 BKN030
BECMG 2205/2207 24010KT 4000 RA OVC013
TEMPO 2209/2212 26015G35KT
BECMG 2212/2214 30010KT 9999 NSW BKN025
TEMPO 2214/2218 32015G30KT 2000 SHRA BKN015TCU
No reported NOTAMs for that airfield.



MET'MAP, your aeronautical weather chart ! - Copyright ORBIFLY December 2007 - Disclaimer

ORBIFLY MET'MAP TEAM :

Programming & Development : Alexandra Zaïnal
Concept & Development : Baudouin d'Aumeries
Co-Development & Prog : Marc-Olivier Méhu
Technical & hardware support : Manuel Goepfert

Contact : metmap@orbifly.com




SOURCES & CREDITS :

   NOAA